Terminal Aerodrome Forecast
Issued by NWS Austin/San Antonio, TX

Home | Current Version | Previous Version | Text Only | Print | Product List | Glossary On
Versions: 1 2 3 4 5 6 7 8 9 10 11 12 13 14 15 16 17 18
536
FTUS44 KEWX 232157 AAA
TAFAUS
TAF AMD
KAUS 232157Z 2322/2424 15022G32KT P6SM FEW070 SCT250
     FM240300 16016KT P6SM FEW022
     FM240600 17011KT P6SM OVC015
     FM241500 19012KT P6SM OVC015
     FM241900 21015G25KT P6SM BKN040=

USA.gov is the U.S. government's official web portal to all federal, state and local government web resources and services.